sensor_id;sensor_type;location;lat;lon;timestamp;P1;durP1;ratioP1;P2;durP2;ratioP2
22543;SDS011;11438;52.044;8.716;2023-09-19T00:00:03;2.05;;;1.02;;
22543;SDS011;11438;52.044;8.716;2023-09-19T00:02:32;2.97;;;0.93;;
22543;SDS011;11438;52.044;8.716;2023-09-19T00:04:58;1.65;;;1.10;;
22543;SDS011;11438;52.044;8.716;2023-09-19T00:07:23;2.45;;;1.27;;
22543;SDS011;11438;52.044;8.716;2023-09-19T00:09:49;3.15;;;1.05;;
22543;SDS011;11438;52.044;8.716;2023-09-19T00:12:15;3.28;;;1.30;;
22543;SDS011;11438;52.044;8.716;2023-09-19T00:14:40;2.63;;;1.23;;
22543;SDS011;11438;52.044;8.716;2023-09-19T00:17:06;2.08;;;1.05;;
22543;SDS011;11438;52.044;8.716;2023-09-19T00:19:33;2.30;;;1.02;;
22543;SDS011;11438;52.044;8.716;2023-09-19T00:21:59;2.33;;;1.25;;
22543;SDS011;11438;52.044;8.716;2023-09-19T00:24:25;2.13;;;1.13;;
22543;SDS011;11438;52.044;8.716;2023-09-19T00:26:53;2.92;;;1.30;;
22543;SDS011;11438;52.044;8.716;2023-09-19T00:29:20;4.03;;;1.50;;
22543;SDS011;11438;52.044;8.716;2023-09-19T00:31:46;4.10;;;1.55;;
22543;SDS011;11438;52.044;8.716;2023-09-19T00:34:12;3.33;;;1.70;;
22543;SDS011;11438;52.044;8.716;2023-09-19T00:36:37;2.45;;;1.30;;
22543;SDS011;11438;52.044;8.716;2023-09-19T00:39:06;4.57;;;1.25;;
22543;SDS011;11438;52.044;8.716;2023-09-19T00:41:33;1.95;;;1.10;;
22543;SDS011;11438;52.044;8.716;2023-09-19T00:44:00;7.75;;;1.50;;
22543;SDS011;11438;52.044;8.716;2023-09-19T00:46:27;3.83;;;1.30;;
22543;SDS011;11438;52.044;8.716;2023-09-19T00:48:53;3.78;;;1.17;;
22543;SDS011;11438;52.044;8.716;2023-09-19T00:51:19;4.63;;;1.40;;
22543;SDS011;11438;52.044;8.716;2023-09-19T00:53:48;2.20;;;1.40;;
22543;SDS011;11438;52.044;8.716;2023-09-19T00:56:14;5.13;;;1.48;;
22543;SDS011;11438;52.044;8.716;2023-09-19T00:58:43;4.18;;;1.35;;
22543;SDS011;11438;52.044;8.716;2023-09-19T01:01:09;7.13;;;1.60;;
22543;SDS011;11438;52.044;8.716;2023-09-19T01:03:36;2.85;;;1.42;;
22543;SDS011;11438;52.044;8.716;2023-09-19T01:06:02;2.92;;;1.50;;
22543;SDS011;11438;52.044;8.716;2023-09-19T01:08:28;3.83;;;1.52;;
22543;SDS011;11438;52.044;8.716;2023-09-19T01:11:05;5.03;;;1.95;;
22543;SDS011;11438;52.044;8.716;2023-09-19T01:13:48;2.03;;;1.52;;
22543;SDS011;11438;52.044;8.716;2023-09-19T01:16:48;3.67;;;1.50;;
22543;SDS011;11438;52.044;8.716;2023-09-19T01:19:43;4.45;;;1.75;;
22543;SDS011;11438;52.044;8.716;2023-09-19T01:28:20;8.85;;;2.60;;
22543;SDS011;11438;52.044;8.716;2023-09-19T01:31:01;5.20;;;2.60;;
22543;SDS011;11438;52.044;8.716;2023-09-19T01:33:28;4.25;;;2.40;;
22543;SDS011;11438;52.044;8.716;2023-09-19T01:36:16;6.25;;;2.65;;
22543;SDS011;11438;52.044;8.716;2023-09-19T01:38:41;6.95;;;2.63;;
22543;SDS011;11438;52.044;8.716;2023-09-19T01:41:12;4.68;;;2.30;;
22543;SDS011;11438;52.044;8.716;2023-09-19T01:43:44;5.32;;;2.28;;
22543;SDS011;11438;52.044;8.716;2023-09-19T01:48:56;4.07;;;2.40;;
22543;SDS011;11438;52.044;8.716;2023-09-19T01:51:51;7.03;;;2.85;;
22543;SDS011;11438;52.044;8.716;2023-09-19T01:54:30;4.38;;;2.78;;
22543;SDS011;11438;52.044;8.716;2023-09-19T01:57:07;7.03;;;2.58;;
22543;SDS011;11438;52.044;8.716;2023-09-19T01:59:52;5.43;;;2.53;;
22543;SDS011;11438;52.044;8.716;2023-09-19T02:02:23;5.28;;;3.00;;
22543;SDS011;11438;52.044;8.716;2023-09-19T02:04:50;4.68;;;2.65;;
22543;SDS011;11438;52.044;8.716;2023-09-19T02:07:16;5.47;;;2.90;;
22543;SDS011;11438;52.044;8.716;2023-09-19T02:09:42;4.45;;;2.50;;
22543;SDS011;11438;52.044;8.716;2023-09-19T02:12:08;5.80;;;3.08;;
22543;SDS011;11438;52.044;8.716;2023-09-19T02:14:34;8.90;;;3.08;;
22543;SDS011;11438;52.044;8.716;2023-09-19T02:17:01;5.10;;;2.88;;
22543;SDS011;11438;52.044;8.716;2023-09-19T02:19:28;6.07;;;2.65;;
22543;SDS011;11438;52.044;8.716;2023-09-19T02:21:55;5.28;;;2.40;;
22543;SDS011;11438;52.044;8.716;2023-09-19T02:24:20;7.00;;;2.78;;
22543;SDS011;11438;52.044;8.716;2023-09-19T02:26:46;5.38;;;2.63;;
22543;SDS011;11438;52.044;8.716;2023-09-19T02:29:12;11.55;;;2.85;;
22543;SDS011;11438;52.044;8.716;2023-09-19T02:31:38;6.38;;;2.40;;
22543;SDS011;11438;52.044;8.716;2023-09-19T02:34:04;5.18;;;2.40;;
22543;SDS011;11438;52.044;8.716;2023-09-19T02:36:31;6.38;;;2.60;;
22543;SDS011;11438;52.044;8.716;2023-09-19T02:38:57;5.55;;;2.25;;
22543;SDS011;11438;52.044;8.716;2023-09-19T02:41:22;5.45;;;2.10;;
22543;SDS011;11438;52.044;8.716;2023-09-19T02:43:48;9.63;;;2.35;;
22543;SDS011;11438;52.044;8.716;2023-09-19T02:46:14;5.90;;;2.30;;
22543;SDS011;11438;52.044;8.716;2023-09-19T02:48:39;7.25;;;2.33;;
22543;SDS011;11438;52.044;8.716;2023-09-19T02:51:05;4.30;;;2.33;;
22543;SDS011;11438;52.044;8.716;2023-09-19T02:53:30;6.25;;;2.30;;
22543;SDS011;11438;52.044;8.716;2023-09-19T02:55:57;8.40;;;2.33;;
22543;SDS011;11438;52.044;8.716;2023-09-19T02:58:23;6.70;;;2.15;;
22543;SDS011;11438;52.044;8.716;2023-09-19T03:00:50;6.55;;;2.17;;
22543;SDS011;11438;52.044;8.716;2023-09-19T03:03:16;6.35;;;2.20;;
22543;SDS011;11438;52.044;8.716;2023-09-19T03:05:42;5.20;;;2.03;;
22543;SDS011;11438;52.044;8.716;2023-09-19T03:08:11;4.55;;;1.80;;
22543;SDS011;11438;52.044;8.716;2023-09-19T03:10:39;5.43;;;1.95;;
22543;SDS011;11438;52.044;8.716;2023-09-19T03:13:05;4.38;;;1.80;;
22543;SDS011;11438;52.044;8.716;2023-09-19T03:15:34;5.90;;;2.10;;
22543;SDS011;11438;52.044;8.716;2023-09-19T03:18:03;6.78;;;2.30;;
22543;SDS011;11438;52.044;8.716;2023-09-19T03:20:29;6.22;;;1.92;;
22543;SDS011;11438;52.044;8.716;2023-09-19T03:22:55;8.50;;;2.20;;
22543;SDS011;11438;52.044;8.716;2023-09-19T03:25:22;6.00;;;2.55;;
22543;SDS011;11438;52.044;8.716;2023-09-19T03:27:48;8.32;;;2.50;;
22543;SDS011;11438;52.044;8.716;2023-09-19T03:30:13;5.85;;;2.00;;
22543;SDS011;11438;52.044;8.716;2023-09-19T03:32:46;5.95;;;2.10;;
22543;SDS011;11438;52.044;8.716;2023-09-19T03:35:12;6.38;;;2.13;;
22543;SDS011;11438;52.044;8.716;2023-09-19T03:37:39;6.15;;;1.90;;
22543;SDS011;11438;52.044;8.716;2023-09-19T03:40:06;6.90;;;2.15;;
22543;SDS011;11438;52.044;8.716;2023-09-19T03:42:32;9.20;;;2.15;;
22543;SDS011;11438;52.044;8.716;2023-09-19T03:45:01;7.25;;;1.98;;
22543;SDS011;11438;52.044;8.716;2023-09-19T03:47:29;10.30;;;2.17;;
22543;SDS011;11438;52.044;8.716;2023-09-19T03:49:54;7.05;;;2.30;;
22543;SDS011;11438;52.044;8.716;2023-09-19T03:52:20;7.00;;;1.90;;
22543;SDS011;11438;52.044;8.716;2023-09-19T03:54:45;7.22;;;1.95;;
22543;SDS011;11438;52.044;8.716;2023-09-19T03:57:11;6.38;;;1.90;;
22543;SDS011;11438;52.044;8.716;2023-09-19T03:59:40;7.68;;;1.92;;
22543;SDS011;11438;52.044;8.716;2023-09-19T04:02:08;7.13;;;1.92;;
22543;SDS011;11438;52.044;8.716;2023-09-19T04:04:38;7.07;;;2.25;;
22543;SDS011;11438;52.044;8.716;2023-09-19T04:07:03;6.60;;;2.15;;
22543;SDS011;11438;52.044;8.716;2023-09-19T04:09:29;5.13;;;2.28;;
22543;SDS011;11438;52.044;8.716;2023-09-19T04:11:54;8.98;;;1.90;;
22543;SDS011;11438;52.044;8.716;2023-09-19T04:14:20;7.13;;;2.17;;
22543;SDS011;11438;52.044;8.716;2023-09-19T04:16:45;6.95;;;2.25;;
22543;SDS011;11438;52.044;8.716;2023-09-19T04:19:11;6.68;;;2.00;;
22543;SDS011;11438;52.044;8.716;2023-09-19T04:21:37;8.27;;;1.73;;
22543;SDS011;11438;52.044;8.716;2023-09-19T04:24:03;7.80;;;1.75;;
22543;SDS011;11438;52.044;8.716;2023-09-19T04:26:28;5.60;;;1.65;;
22543;SDS011;11438;52.044;8.716;2023-09-19T04:28:54;8.00;;;1.73;;
22543;SDS011;11438;52.044;8.716;2023-09-19T04:31:21;9.95;;;1.98;;
22543;SDS011;11438;52.044;8.716;2023-09-19T04:33:47;7.65;;;2.00;;
22543;SDS011;11438;52.044;8.716;2023-09-19T04:36:12;7.68;;;1.63;;
22543;SDS011;11438;52.044;8.716;2023-09-19T04:38:38;5.60;;;1.75;;
22543;SDS011;11438;52.044;8.716;2023-09-19T04:41:03;7.95;;;1.48;;
22543;SDS011;11438;52.044;8.716;2023-09-19T04:43:29;6.25;;;1.40;;
22543;SDS011;11438;52.044;8.716;2023-09-19T04:45:55;7.32;;;1.83;;
22543;SDS011;11438;52.044;8.716;2023-09-19T04:48:23;7.05;;;1.40;;
22543;SDS011;11438;52.044;8.716;2023-09-19T04:50:49;10.63;;;1.55;;
22543;SDS011;11438;52.044;8.716;2023-09-19T04:53:15;8.75;;;1.70;;
22543;SDS011;11438;52.044;8.716;2023-09-19T04:55:42;7.53;;;1.50;;
22543;SDS011;11438;52.044;8.716;2023-09-19T04:58:08;7.10;;;1.70;;
22543;SDS011;11438;52.044;8.716;2023-09-19T05:00:33;6.90;;;1.52;;
22543;SDS011;11438;52.044;8.716;2023-09-19T05:03:00;5.95;;;1.70;;
22543;SDS011;11438;52.044;8.716;2023-09-19T05:05:25;6.53;;;1.40;;
22543;SDS011;11438;52.044;8.716;2023-09-19T05:07:51;6.00;;;1.40;;
22543;SDS011;11438;52.044;8.716;2023-09-19T05:10:18;6.70;;;1.55;;
22543;SDS011;11438;52.044;8.716;2023-09-19T05:12:44;7.10;;;1.73;;
22543;SDS011;11438;52.044;8.716;2023-09-19T05:15:16;6.10;;;1.55;;
22543;SDS011;11438;52.044;8.716;2023-09-19T05:17:51;7.80;;;1.70;;
22543;SDS011;11438;52.044;8.716;2023-09-19T05:20:17;6.53;;;1.50;;
22543;SDS011;11438;52.044;8.716;2023-09-19T05:25:27;8.27;;;1.85;;
22543;SDS011;11438;52.044;8.716;2023-09-19T05:27:55;6.97;;;1.73;;
22543;SDS011;11438;52.044;8.716;2023-09-19T05:30:22;7.47;;;1.55;;
22543;SDS011;11438;52.044;8.716;2023-09-19T05:32:48;7.00;;;1.55;;
22543;SDS011;11438;52.044;8.716;2023-09-19T05:35:14;9.18;;;1.70;;
22543;SDS011;11438;52.044;8.716;2023-09-19T05:37:39;6.40;;;1.63;;
22543;SDS011;11438;52.044;8.716;2023-09-19T05:40:05;7.70;;;1.90;;
22543;SDS011;11438;52.044;8.716;2023-09-19T05:42:34;7.85;;;1.95;;
22543;SDS011;11438;52.044;8.716;2023-09-19T05:45:00;6.57;;;1.30;;
22543;SDS011;11438;52.044;8.716;2023-09-19T05:47:25;8.52;;;1.60;;
22543;SDS011;11438;52.044;8.716;2023-09-19T05:49:51;8.90;;;1.67;;
22543;SDS011;11438;52.044;8.716;2023-09-19T05:52:17;6.53;;;1.75;;
22543;SDS011;11438;52.044;8.716;2023-09-19T05:54:43;6.53;;;1.60;;
22543;SDS011;11438;52.044;8.716;2023-09-19T05:57:08;7.10;;;1.40;;
22543;SDS011;11438;52.044;8.716;2023-09-19T05:59:37;5.55;;;1.27;;
22543;SDS011;11438;52.044;8.716;2023-09-19T06:02:04;7.28;;;1.50;;
22543;SDS011;11438;52.044;8.716;2023-09-19T06:04:31;6.72;;;1.70;;
22543;SDS011;11438;52.044;8.716;2023-09-19T06:06:57;6.70;;;1.83;;
22543;SDS011;11438;52.044;8.716;2023-09-19T06:09:23;5.70;;;1.50;;
22543;SDS011;11438;52.044;8.716;2023-09-19T06:11:48;5.93;;;1.50;;
22543;SDS011;11438;52.044;8.716;2023-09-19T06:14:14;6.40;;;1.50;;
22543;SDS011;11438;52.044;8.716;2023-09-19T06:16:42;6.53;;;1.50;;
22543;SDS011;11438;52.044;8.716;2023-09-19T06:19:08;7.75;;;1.40;;
22543;SDS011;11438;52.044;8.716;2023-09-19T06:21:34;7.90;;;1.80;;
22543;SDS011;11438;52.044;8.716;2023-09-19T06:24:00;6.25;;;1.50;;
22543;SDS011;11438;52.044;8.716;2023-09-19T06:26:27;8.88;;;1.50;;
22543;SDS011;11438;52.044;8.716;2023-09-19T06:28:52;7.63;;;1.80;;
22543;SDS011;11438;52.044;8.716;2023-09-19T06:31:21;8.05;;;1.70;;
22543;SDS011;11438;52.044;8.716;2023-09-19T06:33:48;5.93;;;1.25;;
22543;SDS011;11438;52.044;8.716;2023-09-19T06:36:13;6.85;;;1.70;;
22543;SDS011;11438;52.044;8.716;2023-09-19T06:38:40;7.53;;;1.88;;
22543;SDS011;11438;52.044;8.716;2023-09-19T06:41:06;6.00;;;1.80;;
22543;SDS011;11438;52.044;8.716;2023-09-19T06:43:33;5.03;;;1.42;;
22543;SDS011;11438;52.044;8.716;2023-09-19T06:46:02;8.35;;;1.95;;
22543;SDS011;11438;52.044;8.716;2023-09-19T06:48:29;8.50;;;1.85;;
22543;SDS011;11438;52.044;8.716;2023-09-19T06:50:55;5.90;;;1.58;;
22543;SDS011;11438;52.044;8.716;2023-09-19T06:53:23;7.43;;;1.27;;
22543;SDS011;11438;52.044;8.716;2023-09-19T06:55:49;7.15;;;1.30;;
22543;SDS011;11438;52.044;8.716;2023-09-19T06:58:15;4.63;;;1.40;;
22543;SDS011;11438;52.044;8.716;2023-09-19T07:00:41;8.00;;;1.98;;
22543;SDS011;11438;52.044;8.716;2023-09-19T07:03:07;6.35;;;1.20;;
22543;SDS011;11438;52.044;8.716;2023-09-19T07:05:36;7.57;;;2.05;;
22543;SDS011;11438;52.044;8.716;2023-09-19T07:08:04;5.32;;;1.45;;
22543;SDS011;11438;52.044;8.716;2023-09-19T07:10:31;5.72;;;1.50;;
22543;SDS011;11438;52.044;8.716;2023-09-19T07:13:00;5.97;;;1.48;;
22543;SDS011;11438;52.044;8.716;2023-09-19T07:15:28;5.60;;;1.13;;
22543;SDS011;11438;52.044;8.716;2023-09-19T07:17:58;6.43;;;1.50;;
22543;SDS011;11438;52.044;8.716;2023-09-19T07:20:25;6.97;;;1.30;;
22543;SDS011;11438;52.044;8.716;2023-09-19T07:22:52;7.82;;;2.03;;
22543;SDS011;11438;52.044;8.716;2023-09-19T07:25:20;8.13;;;1.67;;
22543;SDS011;11438;52.044;8.716;2023-09-19T07:27:46;5.70;;;1.35;;
22543;SDS011;11438;52.044;8.716;2023-09-19T07:30:11;10.38;;;1.70;;
22543;SDS011;11438;52.044;8.716;2023-09-19T07:32:37;6.63;;;1.30;;
22543;SDS011;11438;52.044;8.716;2023-09-19T07:35:03;5.95;;;1.15;;
22543;SDS011;11438;52.044;8.716;2023-09-19T07:37:30;6.90;;;1.70;;
22543;SDS011;11438;52.044;8.716;2023-09-19T07:39:58;7.32;;;1.60;;
22543;SDS011;11438;52.044;8.716;2023-09-19T07:42:32;7.75;;;1.45;;
22543;SDS011;11438;52.044;8.716;2023-09-19T07:45:00;6.82;;;1.60;;
22543;SDS011;11438;52.044;8.716;2023-09-19T07:47:26;4.93;;;1.20;;
22543;SDS011;11438;52.044;8.716;2023-09-19T07:49:52;8.90;;;2.15;;
22543;SDS011;11438;52.044;8.716;2023-09-19T07:52:18;7.43;;;1.65;;
22543;SDS011;11438;52.044;8.716;2023-09-19T07:54:44;7.65;;;1.45;;
22543;SDS011;11438;52.044;8.716;2023-09-19T07:57:10;6.35;;;1.27;;
22543;SDS011;11438;52.044;8.716;2023-09-19T07:59:36;6.57;;;1.45;;
22543;SDS011;11438;52.044;8.716;2023-09-19T08:02:04;6.55;;;1.45;;
22543;SDS011;11438;52.044;8.716;2023-09-19T08:04:30;7.43;;;1.70;;
22543;SDS011;11438;52.044;8.716;2023-09-19T08:06:58;8.52;;;1.80;;
22543;SDS011;11438;52.044;8.716;2023-09-19T08:09:28;6.90;;;1.50;;
22543;SDS011;11438;52.044;8.716;2023-09-19T08:11:58;5.90;;;1.20;;
22543;SDS011;11438;52.044;8.716;2023-09-19T08:14:24;6.75;;;1.55;;
22543;SDS011;11438;52.044;8.716;2023-09-19T08:16:51;7.90;;;1.52;;
22543;SDS011;11438;52.044;8.716;2023-09-19T08:19:16;6.75;;;1.50;;
22543;SDS011;11438;52.044;8.716;2023-09-19T08:21:42;4.18;;;1.13;;
22543;SDS011;11438;52.044;8.716;2023-09-19T08:24:11;6.30;;;1.60;;
22543;SDS011;11438;52.044;8.716;2023-09-19T08:26:37;7.53;;;1.73;;
22543;SDS011;11438;52.044;8.716;2023-09-19T08:29:02;7.45;;;1.45;;
22543;SDS011;11438;52.044;8.716;2023-09-19T08:31:29;5.93;;;1.50;;
22543;SDS011;11438;52.044;8.716;2023-09-19T08:33:55;4.63;;;1.50;;
22543;SDS011;11438;52.044;8.716;2023-09-19T08:36:21;8.13;;;1.73;;
22543;SDS011;11438;52.044;8.716;2023-09-19T08:38:47;6.53;;;1.63;;
22543;SDS011;11438;52.044;8.716;2023-09-19T08:41:14;6.22;;;1.58;;
22543;SDS011;11438;52.044;8.716;2023-09-19T08:43:42;9.93;;;1.92;;
22543;SDS011;11438;52.044;8.716;2023-09-19T08:46:11;6.75;;;1.48;;
22543;SDS011;11438;52.044;8.716;2023-09-19T08:48:50;7.03;;;1.58;;
22543;SDS011;11438;52.044;8.716;2023-09-19T08:51:39;7.47;;;1.77;;
22543;SDS011;11438;52.044;8.716;2023-09-19T08:54:24;6.45;;;1.67;;
22543;SDS011;11438;52.044;8.716;2023-09-19T08:56:53;5.78;;;1.58;;
22543;SDS011;11438;52.044;8.716;2023-09-19T08:59:22;5.75;;;1.55;;
22543;SDS011;11438;52.044;8.716;2023-09-19T09:01:52;7.93;;;1.70;;
22543;SDS011;11438;52.044;8.716;2023-09-19T09:04:19;6.95;;;1.88;;
22543;SDS011;11438;52.044;8.716;2023-09-19T09:06:45;7.63;;;1.73;;
22543;SDS011;11438;52.044;8.716;2023-09-19T09:09:13;6.70;;;1.40;;
22543;SDS011;11438;52.044;8.716;2023-09-19T09:11:40;8.65;;;1.45;;
22543;SDS011;11438;52.044;8.716;2023-09-19T09:14:06;4.75;;;1.48;;
22543;SDS011;11438;52.044;8.716;2023-09-19T09:16:36;6.38;;;1.58;;
22543;SDS011;11438;52.044;8.716;2023-09-19T09:19:01;7.35;;;1.60;;
22543;SDS011;11438;52.044;8.716;2023-09-19T09:21:27;9.80;;;1.98;;
22543;SDS011;11438;52.044;8.716;2023-09-19T09:23:53;10.30;;;2.25;;
22543;SDS011;11438;52.044;8.716;2023-09-19T09:29:04;7.18;;;1.75;;
22543;SDS011;11438;52.044;8.716;2023-09-19T09:31:29;4.95;;;1.35;;
22543;SDS011;11438;52.044;8.716;2023-09-19T09:33:55;5.15;;;1.27;;
22543;SDS011;11438;52.044;8.716;2023-09-19T09:36:33;9.18;;;1.67;;
22543;SDS011;11438;52.044;8.716;2023-09-19T09:39:03;7.15;;;1.50;;
22543;SDS011;11438;52.044;8.716;2023-09-19T09:41:41;4.25;;;1.35;;
22543;SDS011;11438;52.044;8.716;2023-09-19T09:44:26;8.35;;;1.77;;
22543;SDS011;11438;52.044;8.716;2023-09-19T09:46:57;8.10;;;1.92;;
22543;SDS011;11438;52.044;8.716;2023-09-19T09:49:47;9.63;;;1.70;;
22543;SDS011;11438;52.044;8.716;2023-09-19T09:52:19;7.25;;;1.50;;
22543;SDS011;11438;52.044;8.716;2023-09-19T09:54:58;6.88;;;1.60;;
22543;SDS011;11438;52.044;8.716;2023-09-19T09:57:30;7.45;;;1.38;;
22543;SDS011;11438;52.044;8.716;2023-09-19T09:59:57;5.40;;;1.65;;
22543;SDS011;11438;52.044;8.716;2023-09-19T10:02:30;8.85;;;1.80;;
22543;SDS011;11438;52.044;8.716;2023-09-19T10:05:12;8.77;;;1.67;;
22543;SDS011;11438;52.044;8.716;2023-09-19T10:07:45;5.55;;;1.45;;
22543;SDS011;11438;52.044;8.716;2023-09-19T10:10:30;7.65;;;2.17;;
22543;SDS011;11438;52.044;8.716;2023-09-19T10:13:03;8.25;;;1.58;;
22543;SDS011;11438;52.044;8.716;2023-09-19T10:15:33;8.48;;;1.40;;
22543;SDS011;11438;52.044;8.716;2023-09-19T10:18:04;7.60;;;1.63;;
22543;SDS011;11438;52.044;8.716;2023-09-19T10:20:33;7.35;;;1.60;;
22543;SDS011;11438;52.044;8.716;2023-09-19T10:23:07;6.97;;;1.63;;
22543;SDS011;11438;52.044;8.716;2023-09-19T10:25:38;6.45;;;1.58;;
22543;SDS011;11438;52.044;8.716;2023-09-19T10:28:06;6.35;;;1.70;;
22543;SDS011;11438;52.044;8.716;2023-09-19T10:30:43;5.45;;;1.60;;
22543;SDS011;11438;52.044;8.716;2023-09-19T10:33:10;5.38;;;1.45;;
22543;SDS011;11438;52.044;8.716;2023-09-19T10:35:47;7.28;;;1.52;;
22543;SDS011;11438;52.044;8.716;2023-09-19T10:38:17;5.13;;;1.58;;
22543;SDS011;11438;52.044;8.716;2023-09-19T10:40:50;8.40;;;1.85;;
22543;SDS011;11438;52.044;8.716;2023-09-19T10:43:18;6.57;;;1.60;;
22543;SDS011;11438;52.044;8.716;2023-09-19T10:45:46;6.88;;;1.85;;
22543;SDS011;11438;52.044;8.716;2023-09-19T10:48:14;4.13;;;1.48;;
22543;SDS011;11438;52.044;8.716;2023-09-19T10:51:06;8.13;;;1.67;;
22543;SDS011;11438;52.044;8.716;2023-09-19T10:56:35;5.35;;;1.40;;
22543;SDS011;11438;52.044;8.716;2023-09-19T10:59:06;5.05;;;1.50;;
22543;SDS011;11438;52.044;8.716;2023-09-19T11:01:41;4.88;;;1.65;;
22543;SDS011;11438;52.044;8.716;2023-09-19T11:07:11;8.35;;;1.60;;
22543;SDS011;11438;52.044;8.716;2023-09-19T11:09:49;7.88;;;1.88;;
22543;SDS011;11438;52.044;8.716;2023-09-19T11:14:58;4.72;;;1.50;;
22543;SDS011;11438;52.044;8.716;2023-09-19T11:17:30;9.23;;;1.55;;
22543;SDS011;11438;52.044;8.716;2023-09-19T11:30:45;7.03;;;1.70;;
22543;SDS011;11438;52.044;8.716;2023-09-19T11:33:21;6.85;;;1.75;;
22543;SDS011;11438;52.044;8.716;2023-09-19T11:36:04;7.50;;;1.50;;
22543;SDS011;11438;52.044;8.716;2023-09-19T11:43:50;5.40;;;1.27;;
22543;SDS011;11438;52.044;8.716;2023-09-19T11:46:16;6.70;;;1.85;;
22543;SDS011;11438;52.044;8.716;2023-09-19T11:48:47;4.03;;;1.13;;
22543;SDS011;11438;52.044;8.716;2023-09-19T11:51:15;5.65;;;1.70;;
22543;SDS011;11438;52.044;8.716;2023-09-19T11:53:49;5.57;;;1.40;;
22543;SDS011;11438;52.044;8.716;2023-09-19T11:56:16;8.57;;;1.83;;
22543;SDS011;11438;52.044;8.716;2023-09-19T11:58:46;7.05;;;1.73;;
22543;SDS011;11438;52.044;8.716;2023-09-19T12:01:14;6.45;;;1.70;;
22543;SDS011;11438;52.044;8.716;2023-09-19T12:03:46;5.22;;;2.08;;
22543;SDS011;11438;52.044;8.716;2023-09-19T12:06:17;7.13;;;1.60;;
22543;SDS011;11438;52.044;8.716;2023-09-19T12:08:43;6.20;;;1.80;;
22543;SDS011;11438;52.044;8.716;2023-09-19T12:11:15;4.70;;;1.65;;
22543;SDS011;11438;52.044;8.716;2023-09-19T12:13:44;6.60;;;1.63;;
22543;SDS011;11438;52.044;8.716;2023-09-19T12:16:12;6.93;;;1.55;;
22543;SDS011;11438;52.044;8.716;2023-09-19T12:18:42;5.53;;;1.40;;
22543;SDS011;11438;52.044;8.716;2023-09-19T12:21:30;9.32;;;1.80;;
22543;SDS011;11438;52.044;8.716;2023-09-19T12:24:07;4.65;;;1.35;;
22543;SDS011;11438;52.044;8.716;2023-09-19T12:26:45;5.60;;;1.30;;
22543;SDS011;11438;52.044;8.716;2023-09-19T12:29:20;6.03;;;1.55;;
22543;SDS011;11438;52.044;8.716;2023-09-19T12:31:47;3.70;;;1.38;;
22543;SDS011;11438;52.044;8.716;2023-09-19T12:34:28;6.55;;;1.60;;
22543;SDS011;11438;52.044;8.716;2023-09-19T12:39:36;5.90;;;1.80;;
22543;SDS011;11438;52.044;8.716;2023-09-19T12:42:12;4.55;;;1.50;;
22543;SDS011;11438;52.044;8.716;2023-09-19T12:44:42;4.05;;;1.17;;
22543;SDS011;11438;52.044;8.716;2023-09-19T12:47:20;4.07;;;1.17;;
22543;SDS011;11438;52.044;8.716;2023-09-19T12:52:50;6.07;;;1.77;;
22543;SDS011;11438;52.044;8.716;2023-09-19T12:55:24;7.95;;;1.98;;
22543;SDS011;11438;52.044;8.716;2023-09-19T12:57:55;3.88;;;1.35;;
22543;SDS011;11438;52.044;8.716;2023-09-19T13:00:38;5.05;;;1.42;;
22543;SDS011;11438;52.044;8.716;2023-09-19T13:03:11;5.22;;;1.45;;
22543;SDS011;11438;52.044;8.716;2023-09-19T13:06:01;3.83;;;1.20;;
22543;SDS011;11438;52.044;8.716;2023-09-19T13:08:35;5.78;;;1.65;;
22543;SDS011;11438;52.044;8.716;2023-09-19T13:11:14;6.00;;;1.40;;
22543;SDS011;11438;52.044;8.716;2023-09-19T13:14:17;6.10;;;1.65;;
22543;SDS011;11438;52.044;8.716;2023-09-19T13:19:38;4.97;;;1.70;;
22543;SDS011;11438;52.044;8.716;2023-09-19T13:25:14;6.22;;;1.58;;
22543;SDS011;11438;52.044;8.716;2023-09-19T13:27:44;4.47;;;1.50;;
22543;SDS011;11438;52.044;8.716;2023-09-19T13:30:19;5.80;;;1.70;;
22543;SDS011;11438;52.044;8.716;2023-09-19T13:32:45;4.13;;;1.20;;
22543;SDS011;11438;52.044;8.716;2023-09-19T13:35:12;6.75;;;1.52;;
22543;SDS011;11438;52.044;8.716;2023-09-19T13:37:39;4.30;;;1.20;;
22543;SDS011;11438;52.044;8.716;2023-09-19T13:42:35;8.20;;;1.50;;
22543;SDS011;11438;52.044;8.716;2023-09-19T13:45:01;3.97;;;1.35;;
22543;SDS011;11438;52.044;8.716;2023-09-19T13:47:28;4.03;;;1.30;;
22543;SDS011;11438;52.044;8.716;2023-09-19T13:49:54;6.15;;;1.50;;
22543;SDS011;11438;52.044;8.716;2023-09-19T13:52:20;5.13;;;1.20;;
22543;SDS011;11438;52.044;8.716;2023-09-19T13:54:46;3.13;;;1.23;;
22543;SDS011;11438;52.044;8.716;2023-09-19T13:57:12;5.10;;;1.20;;
22543;SDS011;11438;52.044;8.716;2023-09-19T13:59:37;4.03;;;1.20;;
22543;SDS011;11438;52.044;8.716;2023-09-19T14:02:03;4.95;;;1.20;;
22543;SDS011;11438;52.044;8.716;2023-09-19T14:04:31;3.58;;;1.20;;
22543;SDS011;11438;52.044;8.716;2023-09-19T14:06:56;6.03;;;1.27;;
22543;SDS011;11438;52.044;8.716;2023-09-19T14:09:23;4.60;;;1.20;;
22543;SDS011;11438;52.044;8.716;2023-09-19T14:11:49;4.88;;;1.38;;
22543;SDS011;11438;52.044;8.716;2023-09-19T14:14:17;4.38;;;1.30;;
22543;SDS011;11438;52.044;8.716;2023-09-19T14:16:43;5.00;;;1.10;;
22543;SDS011;11438;52.044;8.716;2023-09-19T14:19:09;5.03;;;1.02;;
22543;SDS011;11438;52.044;8.716;2023-09-19T14:21:35;4.45;;;1.17;;
22543;SDS011;11438;52.044;8.716;2023-09-19T14:24:01;3.65;;;1.10;;
22543;SDS011;11438;52.044;8.716;2023-09-19T14:26:28;4.68;;;1.17;;
22543;SDS011;11438;52.044;8.716;2023-09-19T14:28:54;6.72;;;1.23;;
22543;SDS011;11438;52.044;8.716;2023-09-19T14:31:20;4.75;;;1.02;;
22543;SDS011;11438;52.044;8.716;2023-09-19T14:33:45;2.47;;;0.90;;
22543;SDS011;11438;52.044;8.716;2023-09-19T14:36:17;3.90;;;1.13;;
22543;SDS011;11438;52.044;8.716;2023-09-19T14:38:44;3.97;;;1.08;;
22543;SDS011;11438;52.044;8.716;2023-09-19T14:41:09;3.03;;;0.90;;
22543;SDS011;11438;52.044;8.716;2023-09-19T14:43:35;4.40;;;1.42;;
22543;SDS011;11438;52.044;8.716;2023-09-19T14:46:04;2.42;;;0.95;;
22543;SDS011;11438;52.044;8.716;2023-09-19T14:48:32;6.80;;;1.33;;
22543;SDS011;11438;52.044;8.716;2023-09-19T14:51:02;2.63;;;1.00;;
22543;SDS011;11438;52.044;8.716;2023-09-19T14:53:28;2.28;;;1.00;;
22543;SDS011;11438;52.044;8.716;2023-09-19T14:55:55;4.00;;;1.05;;
22543;SDS011;11438;52.044;8.716;2023-09-19T14:58:21;2.65;;;1.00;;
22543;SDS011;11438;52.044;8.716;2023-09-19T15:00:46;5.22;;;1.10;;
22543;SDS011;11438;52.044;8.716;2023-09-19T15:03:12;3.55;;;1.20;;
22543;SDS011;11438;52.044;8.716;2023-09-19T15:05:43;3.40;;;1.27;;
22543;SDS011;11438;52.044;8.716;2023-09-19T15:08:08;2.90;;;1.00;;
22543;SDS011;11438;52.044;8.716;2023-09-19T15:10:34;2.40;;;1.02;;
22543;SDS011;11438;52.044;8.716;2023-09-19T15:12:59;4.63;;;1.10;;
22543;SDS011;11438;52.044;8.716;2023-09-19T15:15:25;3.80;;;1.30;;
22543;SDS011;11438;52.044;8.716;2023-09-19T15:17:51;5.10;;;1.40;;
22543;SDS011;11438;52.044;8.716;2023-09-19T15:20:16;5.72;;;1.20;;
22543;SDS011;11438;52.044;8.716;2023-09-19T15:22:42;6.13;;;1.63;;
22543;SDS011;11438;52.044;8.716;2023-09-19T15:25:09;3.50;;;1.38;;
22543;SDS011;11438;52.044;8.716;2023-09-19T15:27:35;4.68;;;1.30;;
22543;SDS011;11438;52.044;8.716;2023-09-19T15:30:02;3.90;;;1.17;;
22543;SDS011;11438;52.044;8.716;2023-09-19T15:32:27;5.80;;;1.20;;
22543;SDS011;11438;52.044;8.716;2023-09-19T15:34:53;3.65;;;1.13;;
22543;SDS011;11438;52.044;8.716;2023-09-19T15:37:18;2.67;;;1.00;;
22543;SDS011;11438;52.044;8.716;2023-09-19T15:39:45;4.03;;;1.20;;
22543;SDS011;11438;52.044;8.716;2023-09-19T15:42:11;4.72;;;1.23;;
22543;SDS011;11438;52.044;8.716;2023-09-19T15:44:36;2.63;;;1.10;;
22543;SDS011;11438;52.044;8.716;2023-09-19T15:47:03;7.53;;;1.60;;
22543;SDS011;11438;52.044;8.716;2023-09-19T15:49:29;5.45;;;1.38;;